Amarillo, Texas
Current Conditions -  °F | °C
As of 10:53 AM on Friday 21 Nov 2014 (Local Time) from KAMA Reporting Station
Clear Clear  
Wind Chill: 47°   Ceiling: Unl
Heat Index: 47°   Visibility: 10mi
Dew Point: 36°   Wind: 3mph
Humidity: 66%   Direction: NA
Pressure: 30.06"   Gusts: NA
Location:  35.21°N, 101.83°W
Report Text: KAMA 211653Z VRB03KT 10SM CLR 08/02 A3006 RMK AO2 SLP176 T00830022
Loading
Personal Weather Stations






























Interactive Weather Map New forecast layout! Learn more

10-Day Weather Forecast

Advertisements
Track Severe Weather on mobile